sensor_id;sensor_type;location;lat;lon;timestamp;pressure;altitude;pressure_sealevel;temperature;humidity
75166;BME280;63747;48.042;10.088;2023-02-26T00:00:19;94415.41;;;-3.23;72.03
75166;BME280;63747;48.042;10.088;2023-02-26T00:03:20;94416.94;;;-3.20;71.91
75166;BME280;63747;48.042;10.088;2023-02-26T00:06:21;94407.75;;;-3.24;71.97
75166;BME280;63747;48.042;10.088;2023-02-26T00:09:22;94418.00;;;-3.23;71.56
75166;BME280;63747;48.042;10.088;2023-02-26T00:12:23;94421.53;;;-3.24;71.26
75166;BME280;63747;48.042;10.088;2023-02-26T00:15:25;94421.72;;;-3.27;70.95
75166;BME280;63747;48.042;10.088;2023-02-26T00:18:26;94428.69;;;-3.27;70.97
75166;BME280;63747;48.042;10.088;2023-02-26T00:21:28;94432.22;;;-3.28;70.89
75166;BME280;63747;48.042;10.088;2023-02-26T00:24:29;94430.22;;;-3.25;70.64
75166;BME280;63747;48.042;10.088;2023-02-26T00:27:30;94422.56;;;-3.26;70.74
75166;BME280;63747;48.042;10.088;2023-02-26T00:30:31;94429.72;;;-3.30;70.30
75166;BME280;63747;48.042;10.088;2023-02-26T00:33:32;94436.97;;;-3.22;70.06
75166;BME280;63747;48.042;10.088;2023-02-26T00:36:49;94440.28;;;-3.33;70.06
75166;BME280;63747;48.042;10.088;2023-02-26T00:40:20;94430.59;;;-3.42;70.05
75166;BME280;63747;48.042;10.088;2023-02-26T00:43:23;94430.28;;;-3.38;69.86
75166;BME280;63747;48.042;10.088;2023-02-26T00:53:18;94431.09;;;-3.37;69.74
75166;BME280;63747;48.042;10.088;2023-02-26T00:56:21;94439.31;;;-3.43;69.70
75166;BME280;63747;48.042;10.088;2023-02-26T00:59:22;94436.22;;;-3.61;70.23
75166;BME280;63747;48.042;10.088;2023-02-26T01:02:23;94435.63;;;-3.65;70.52
75166;BME280;63747;48.042;10.088;2023-02-26T01:05:24;94439.53;;;-3.59;70.84
75166;BME280;63747;48.042;10.088;2023-02-26T01:08:38;94433.13;;;-3.66;70.88
75166;BME280;63747;48.042;10.088;2023-02-26T01:11:42;94453.41;;;-3.60;70.71
75166;BME280;63747;48.042;10.088;2023-02-26T01:14:44;94439.13;;;-3.66;71.30
75166;BME280;63747;48.042;10.088;2023-02-26T01:17:50;94440.81;;;-3.65;71.46
75166;BME280;63747;48.042;10.088;2023-02-26T01:21:03;94438.00;;;-3.62;71.14
75166;BME280;63747;48.042;10.088;2023-02-26T01:24:06;94431.97;;;-3.49;70.83
75166;BME280;63747;48.042;10.088;2023-02-26T01:27:09;94430.41;;;-3.52;70.54
75166;BME280;63747;48.042;10.088;2023-02-26T01:30:10;94431.59;;;-3.69;70.97
75166;BME280;63747;48.042;10.088;2023-02-26T01:36:27;94433.69;;;-3.87;71.80
75166;BME280;63747;48.042;10.088;2023-02-26T01:39:36;94438.56;;;-4.07;72.49
75166;BME280;63747;48.042;10.088;2023-02-26T01:42:42;94434.13;;;-4.18;72.93
75166;BME280;63747;48.042;10.088;2023-02-26T01:46:05;94436.38;;;-4.26;73.35
75166;BME280;63747;48.042;10.088;2023-02-26T01:49:15;94437.31;;;-4.27;74.55
75166;BME280;63747;48.042;10.088;2023-02-26T01:55:54;94434.44;;;-4.10;74.07
75166;BME280;63747;48.042;10.088;2023-02-26T01:58:55;94431.13;;;-4.12;73.53
75166;BME280;63747;48.042;10.088;2023-02-26T02:01:57;94434.13;;;-4.05;73.42
75166;BME280;63747;48.042;10.088;2023-02-26T02:05:03;94427.91;;;-4.16;73.36
75166;BME280;63747;48.042;10.088;2023-02-26T02:08:06;94437.84;;;-4.09;73.19
75166;BME280;63747;48.042;10.088;2023-02-26T02:11:10;94441.03;;;-4.06;73.19
75166;BME280;63747;48.042;10.088;2023-02-26T02:14:42;94434.53;;;-4.11;73.16
75166;BME280;63747;48.042;10.088;2023-02-26T02:18:03;94439.31;;;-4.05;73.25
75166;BME280;63747;48.042;10.088;2023-02-26T02:31:10;94454.19;;;-4.22;72.73
75166;BME280;63747;48.042;10.088;2023-02-26T02:34:18;94448.91;;;-4.20;72.83
75166;BME280;63747;48.042;10.088;2023-02-26T02:37:26;94459.91;;;-4.17;72.91
75166;BME280;63747;48.042;10.088;2023-02-26T02:40:32;94475.41;;;-4.29;72.97
75166;BME280;63747;48.042;10.088;2023-02-26T02:43:35;94468.44;;;-4.42;72.99
75166;BME280;63747;48.042;10.088;2023-02-26T02:46:39;94477.25;;;-4.44;72.95
75166;BME280;63747;48.042;10.088;2023-02-26T02:49:46;94471.16;;;-4.43;73.13
75166;BME280;63747;48.042;10.088;2023-02-26T02:52:52;94479.00;;;-4.45;73.30
75166;BME280;63747;48.042;10.088;2023-02-26T02:56:09;94489.47;;;-4.46;73.12
75166;BME280;63747;48.042;10.088;2023-02-26T02:59:17;94480.25;;;-4.37;72.97
75166;BME280;63747;48.042;10.088;2023-02-26T03:02:31;94473.84;;;-4.45;72.79
75166;BME280;63747;48.042;10.088;2023-02-26T03:05:33;94492.47;;;-4.39;72.63
75166;BME280;63747;48.042;10.088;2023-02-26T03:08:37;94485.44;;;-4.37;72.16
75166;BME280;63747;48.042;10.088;2023-02-26T03:11:40;94487.72;;;-4.33;72.02
75166;BME280;63747;48.042;10.088;2023-02-26T03:14:41;94497.84;;;-4.30;71.76
75166;BME280;63747;48.042;10.088;2023-02-26T03:27:48;94506.97;;;-4.37;71.07
75166;BME280;63747;48.042;10.088;2023-02-26T03:30:57;94508.28;;;-4.44;70.60
75166;BME280;63747;48.042;10.088;2023-02-26T03:37:26;94516.16;;;-4.46;71.04
75166;BME280;63747;48.042;10.088;2023-02-26T03:40:35;94493.47;;;-4.55;70.88
75166;BME280;63747;48.042;10.088;2023-02-26T03:43:59;94526.72;;;-4.36;70.79
75166;BME280;63747;48.042;10.088;2023-02-26T03:47:07;94514.50;;;-4.34;70.11
75166;BME280;63747;48.042;10.088;2023-02-26T03:50:32;94522.69;;;-4.27;70.34
75166;BME280;63747;48.042;10.088;2023-02-26T03:53:52;94520.94;;;-4.39;70.66
75166;BME280;63747;48.042;10.088;2023-02-26T03:56:55;94527.53;;;-4.35;70.40
75166;BME280;63747;48.042;10.088;2023-02-26T03:59:56;94527.41;;;-4.47;70.49
75166;BME280;63747;48.042;10.088;2023-02-26T04:03:34;94538.78;;;-4.49;70.72
75166;BME280;63747;48.042;10.088;2023-02-26T04:06:27;94541.03;;;-4.57;70.67
75166;BME280;63747;48.042;10.088;2023-02-26T04:09:28;94535.97;;;-4.59;70.66
75166;BME280;63747;48.042;10.088;2023-02-26T04:12:29;94534.41;;;-4.61;70.74
75166;BME280;63747;48.042;10.088;2023-02-26T04:15:30;94535.97;;;-4.59;70.53
75166;BME280;63747;48.042;10.088;2023-02-26T04:18:31;94543.09;;;-4.62;70.78
75166;BME280;63747;48.042;10.088;2023-02-26T04:21:31;94539.56;;;-4.61;70.99
75166;BME280;63747;48.042;10.088;2023-02-26T04:24:32;94545.19;;;-4.55;70.66
75166;BME280;63747;48.042;10.088;2023-02-26T04:27:33;94543.97;;;-4.49;70.69
75166;BME280;63747;48.042;10.088;2023-02-26T04:30:33;94552.44;;;-4.60;70.24
75166;BME280;63747;48.042;10.088;2023-02-26T04:33:34;94547.72;;;-4.67;70.69
75166;BME280;63747;48.042;10.088;2023-02-26T04:36:35;94545.78;;;-4.64;70.69
75166;BME280;63747;48.042;10.088;2023-02-26T04:39:35;94545.50;;;-4.59;70.42
75166;BME280;63747;48.042;10.088;2023-02-26T04:42:36;94547.53;;;-4.64;70.75
75166;BME280;63747;48.042;10.088;2023-02-26T04:45:37;94549.53;;;-4.55;70.46
75166;BME280;63747;48.042;10.088;2023-02-26T04:48:37;94554.91;;;-4.58;70.33
75166;BME280;63747;48.042;10.088;2023-02-26T04:51:38;94555.28;;;-4.64;70.67
75166;BME280;63747;48.042;10.088;2023-02-26T04:54:39;94557.16;;;-4.66;70.40
75166;BME280;63747;48.042;10.088;2023-02-26T04:57:40;94561.69;;;-4.70;70.53
75166;BME280;63747;48.042;10.088;2023-02-26T05:00:41;94562.50;;;-4.70;70.15
75166;BME280;63747;48.042;10.088;2023-02-26T05:03:41;94562.88;;;-4.76;70.17
75166;BME280;63747;48.042;10.088;2023-02-26T05:06:42;94567.69;;;-4.70;69.96
75166;BME280;63747;48.042;10.088;2023-02-26T05:09:43;94557.72;;;-4.76;70.15
75166;BME280;63747;48.042;10.088;2023-02-26T05:12:43;94561.19;;;-4.89;69.99
75166;BME280;63747;48.042;10.088;2023-02-26T05:15:44;94568.66;;;-4.85;69.99
75166;BME280;63747;48.042;10.088;2023-02-26T05:18:45;94566.09;;;-4.99;69.61
75166;BME280;63747;48.042;10.088;2023-02-26T05:21:45;94576.63;;;-5.02;69.73
75166;BME280;63747;48.042;10.088;2023-02-26T05:24:48;94575.06;;;-5.05;69.69
75166;BME280;63747;48.042;10.088;2023-02-26T05:27:49;94577.47;;;-5.16;69.67
75166;BME280;63747;48.042;10.088;2023-02-26T05:30:50;94575.72;;;-5.15;69.52
75166;BME280;63747;48.042;10.088;2023-02-26T05:33:51;94579.22;;;-5.16;69.55
75166;BME280;63747;48.042;10.088;2023-02-26T05:36:51;94580.88;;;-5.15;69.54
75166;BME280;63747;48.042;10.088;2023-02-26T05:39:52;94570.84;;;-5.20;69.40
75166;BME280;63747;48.042;10.088;2023-02-26T05:42:53;94578.69;;;-5.36;69.47
75166;BME280;63747;48.042;10.088;2023-02-26T05:45:54;94582.28;;;-5.38;69.64
75166;BME280;63747;48.042;10.088;2023-02-26T05:48:54;94589.38;;;-5.42;69.86
75166;BME280;63747;48.042;10.088;2023-02-26T05:51:55;94583.84;;;-5.36;69.65
75166;BME280;63747;48.042;10.088;2023-02-26T05:54:56;94594.16;;;-5.21;69.45
75166;BME280;63747;48.042;10.088;2023-02-26T05:57:57;94597.75;;;-5.10;69.54
75166;BME280;63747;48.042;10.088;2023-02-26T06:00:58;94596.75;;;-5.07;69.27
75166;BME280;63747;48.042;10.088;2023-02-26T06:03:59;94595.91;;;-5.08;69.16
75166;BME280;63747;48.042;10.088;2023-02-26T06:07:00;94603.50;;;-5.19;69.31
75166;BME280;63747;48.042;10.088;2023-02-26T06:10:02;94610.13;;;-5.29;69.56
75166;BME280;63747;48.042;10.088;2023-02-26T06:13:03;94604.34;;;-5.47;70.02
75166;BME280;63747;48.042;10.088;2023-02-26T06:16:04;94614.72;;;-5.63;70.59
75166;BME280;63747;48.042;10.088;2023-02-26T06:19:05;94621.38;;;-5.59;70.20
75166;BME280;63747;48.042;10.088;2023-02-26T06:22:05;94626.06;;;-5.65;70.21
75166;BME280;63747;48.042;10.088;2023-02-26T06:25:06;94625.41;;;-5.83;70.70
75166;BME280;63747;48.042;10.088;2023-02-26T06:28:07;94627.50;;;-5.90;71.21
75166;BME280;63747;48.042;10.088;2023-02-26T06:31:08;94628.31;;;-5.89;71.06
75166;BME280;63747;48.042;10.088;2023-02-26T06:34:09;94644.00;;;-5.92;71.36
75166;BME280;63747;48.042;10.088;2023-02-26T06:37:10;94639.91;;;-5.96;71.52
75166;BME280;63747;48.042;10.088;2023-02-26T06:40:11;94639.28;;;-6.00;71.54
75166;BME280;63747;48.042;10.088;2023-02-26T06:43:12;94651.44;;;-6.02;71.90
75166;BME280;63747;48.042;10.088;2023-02-26T06:46:13;94652.91;;;-5.98;71.54
75166;BME280;63747;48.042;10.088;2023-02-26T06:49:13;94655.34;;;-5.95;71.20
75166;BME280;63747;48.042;10.088;2023-02-26T06:52:14;94657.34;;;-6.00;71.54
75166;BME280;63747;48.042;10.088;2023-02-26T06:55:15;94664.06;;;-5.97;71.31
75166;BME280;63747;48.042;10.088;2023-02-26T06:58:16;94661.84;;;-6.03;71.65
75166;BME280;63747;48.042;10.088;2023-02-26T07:01:17;94673.94;;;-5.90;71.62
75166;BME280;63747;48.042;10.088;2023-02-26T07:04:17;94671.22;;;-5.87;71.32
75166;BME280;63747;48.042;10.088;2023-02-26T07:07:18;94675.00;;;-5.78;71.44
75166;BME280;63747;48.042;10.088;2023-02-26T07:10:19;94673.09;;;-5.74;71.56
75166;BME280;63747;48.042;10.088;2023-02-26T07:13:24;94687.09;;;-5.64;71.22
75166;BME280;63747;48.042;10.088;2023-02-26T07:16:24;94686.09;;;-5.62;70.94
75166;BME280;63747;48.042;10.088;2023-02-26T07:19:25;94696.88;;;-5.69;71.08
75166;BME280;63747;48.042;10.088;2023-02-26T07:22:26;94704.44;;;-5.66;70.99
75166;BME280;63747;48.042;10.088;2023-02-26T07:25:27;94703.28;;;-5.76;70.77
75166;BME280;63747;48.042;10.088;2023-02-26T07:28:28;94705.91;;;-5.62;70.84
75166;BME280;63747;48.042;10.088;2023-02-26T07:31:28;94712.03;;;-5.49;70.31
75166;BME280;63747;48.042;10.088;2023-02-26T07:34:30;94716.00;;;-5.43;70.29
75166;BME280;63747;48.042;10.088;2023-02-26T07:37:30;94718.56;;;-5.13;69.89
75166;BME280;63747;48.042;10.088;2023-02-26T07:40:31;94725.56;;;-5.01;69.63
75166;BME280;63747;48.042;10.088;2023-02-26T07:43:32;94728.19;;;-4.87;69.24
75166;BME280;63747;48.042;10.088;2023-02-26T07:46:33;94730.78;;;-4.87;68.98
75166;BME280;63747;48.042;10.088;2023-02-26T07:49:34;94725.66;;;-4.88;68.79
75166;BME280;63747;48.042;10.088;2023-02-26T07:52:35;94735.56;;;-4.66;68.71
75166;BME280;63747;48.042;10.088;2023-02-26T07:55:36;94742.34;;;-4.37;68.19
75166;BME280;63747;48.042;10.088;2023-02-26T07:58:36;94729.50;;;-4.24;67.64
75166;BME280;63747;48.042;10.088;2023-02-26T08:01:37;94738.03;;;-4.09;67.22
75166;BME280;63747;48.042;10.088;2023-02-26T08:04:38;94737.66;;;-4.03;66.75
75166;BME280;63747;48.042;10.088;2023-02-26T08:07:39;94750.44;;;-4.15;66.49
75166;BME280;63747;48.042;10.088;2023-02-26T08:10:40;94749.44;;;-4.12;66.55
75166;BME280;63747;48.042;10.088;2023-02-26T08:13:41;94750.16;;;-4.10;66.38
75166;BME280;63747;48.042;10.088;2023-02-26T08:16:41;94746.63;;;-4.09;66.17
75166;BME280;63747;48.042;10.088;2023-02-26T08:19:42;94748.63;;;-4.00;66.06
75166;BME280;63747;48.042;10.088;2023-02-26T08:22:43;94745.19;;;-3.86;65.87
75166;BME280;63747;48.042;10.088;2023-02-26T08:25:44;94749.41;;;-3.71;65.83
75166;BME280;63747;48.042;10.088;2023-02-26T08:28:45;94751.00;;;-3.55;65.35
75166;BME280;63747;48.042;10.088;2023-02-26T08:31:46;94740.34;;;-3.38;65.13
75166;BME280;63747;48.042;10.088;2023-02-26T08:34:47;94738.50;;;-3.36;64.14
75166;BME280;63747;48.042;10.088;2023-02-26T08:37:48;94740.28;;;-3.24;64.30
75166;BME280;63747;48.042;10.088;2023-02-26T08:40:49;94743.72;;;-3.11;63.55
75166;BME280;63747;48.042;10.088;2023-02-26T08:43:52;94758.41;;;-3.11;63.59
75166;BME280;63747;48.042;10.088;2023-02-26T08:46:52;94748.81;;;-2.96;63.84
75166;BME280;63747;48.042;10.088;2023-02-26T08:49:53;94756.03;;;-2.51;63.15
75166;BME280;63747;48.042;10.088;2023-02-26T08:52:54;94746.66;;;-2.15;62.19
75166;BME280;63747;48.042;10.088;2023-02-26T08:55:55;94748.72;;;-1.83;61.78
75166;BME280;63747;48.042;10.088;2023-02-26T08:58:56;94738.28;;;-1.71;61.43
75166;BME280;63747;48.042;10.088;2023-02-26T09:01:57;94748.34;;;-1.90;61.60
75166;BME280;63747;48.042;10.088;2023-02-26T09:04:57;94756.16;;;-2.39;59.82
75166;BME280;63747;48.042;10.088;2023-02-26T09:07:58;94754.50;;;-2.40;61.67
75166;BME280;63747;48.042;10.088;2023-02-26T09:11:00;94759.84;;;-2.18;61.50
75166;BME280;63747;48.042;10.088;2023-02-26T09:14:02;94755.97;;;-1.76;60.82
75166;BME280;63747;48.042;10.088;2023-02-26T09:17:03;94753.44;;;-1.41;60.31
75166;BME280;63747;48.042;10.088;2023-02-26T09:20:04;94751.06;;;-1.67;59.83
75166;BME280;63747;48.042;10.088;2023-02-26T09:23:05;94759.91;;;-1.70;59.90
75166;BME280;63747;48.042;10.088;2023-02-26T09:26:06;94756.38;;;-2.06;60.02
75166;BME280;63747;48.042;10.088;2023-02-26T09:29:08;94769.84;;;-2.37;59.74
75166;BME280;63747;48.042;10.088;2023-02-26T09:32:10;94760.25;;;-2.24;60.56
75166;BME280;63747;48.042;10.088;2023-02-26T09:35:11;94770.09;;;-2.04;60.23
75166;BME280;63747;48.042;10.088;2023-02-26T09:38:11;94754.31;;;-2.01;60.61
75166;BME280;63747;48.042;10.088;2023-02-26T09:41:17;94754.16;;;-1.86;60.63
75166;BME280;63747;48.042;10.088;2023-02-26T09:44:32;94763.16;;;-1.79;60.44
75166;BME280;63747;48.042;10.088;2023-02-26T09:47:39;94772.53;;;-1.89;60.32
75166;BME280;63747;48.042;10.088;2023-02-26T09:50:48;94767.25;;;-1.88;60.30
75166;BME280;63747;48.042;10.088;2023-02-26T09:53:50;94772.19;;;-1.72;60.11
75166;BME280;63747;48.042;10.088;2023-02-26T09:56:53;94781.34;;;-1.79;60.59
75166;BME280;63747;48.042;10.088;2023-02-26T09:59:55;94773.72;;;-1.93;60.29
75166;BME280;63747;48.042;10.088;2023-02-26T10:03:11;94777.03;;;-2.04;60.85
75166;BME280;63747;48.042;10.088;2023-02-26T10:06:26;94771.53;;;-2.00;60.47
75166;BME280;63747;48.042;10.088;2023-02-26T10:12:42;94777.69;;;-2.01;61.25
75166;BME280;63747;48.042;10.088;2023-02-26T10:15:44;94776.84;;;-2.01;60.93
75166;BME280;63747;48.042;10.088;2023-02-26T10:18:50;94775.28;;;-2.04;61.47
75166;BME280;63747;48.042;10.088;2023-02-26T10:21:57;94779.22;;;-1.98;61.42
75166;BME280;63747;48.042;10.088;2023-02-26T10:25:06;94783.47;;;-1.97;61.35
75166;BME280;63747;48.042;10.088;2023-02-26T10:31:25;94797.16;;;-2.44;61.54
75166;BME280;63747;48.042;10.088;2023-02-26T10:34:39;94785.75;;;-2.67;62.22
75166;BME280;63747;48.042;10.088;2023-02-26T10:41:01;94786.16;;;-2.61;62.44
75166;BME280;63747;48.042;10.088;2023-02-26T10:44:27;94778.91;;;-2.56;62.07
75166;BME280;63747;48.042;10.088;2023-02-26T10:50:34;94784.81;;;-2.54;62.39
75166;BME280;63747;48.042;10.088;2023-02-26T10:53:35;94788.94;;;-2.51;62.92
75166;BME280;63747;48.042;10.088;2023-02-26T10:56:36;94786.69;;;-2.43;63.12
75166;BME280;63747;48.042;10.088;2023-02-26T10:59:37;94790.09;;;-2.42;63.07
75166;BME280;63747;48.042;10.088;2023-02-26T11:02:40;94789.16;;;-2.29;63.12
75166;BME280;63747;48.042;10.088;2023-02-26T11:05:42;94801.09;;;-2.26;63.16
75166;BME280;63747;48.042;10.088;2023-02-26T11:08:45;94802.44;;;-2.33;63.41
75166;BME280;63747;48.042;10.088;2023-02-26T11:11:54;94806.78;;;-2.21;63.51
75166;BME280;63747;48.042;10.088;2023-02-26T11:14:55;94809.16;;;-2.18;63.70
75166;BME280;63747;48.042;10.088;2023-02-26T11:17:56;94809.47;;;-2.10;63.72
75166;BME280;63747;48.042;10.088;2023-02-26T11:20:59;94819.66;;;-2.19;63.74
75166;BME280;63747;48.042;10.088;2023-02-26T11:24:27;94823.09;;;-2.32;64.10
75166;BME280;63747;48.042;10.088;2023-02-26T11:27:36;94819.97;;;-2.37;64.26
75166;BME280;63747;48.042;10.088;2023-02-26T11:30:37;94822.56;;;-2.37;64.55
75166;BME280;63747;48.042;10.088;2023-02-26T11:33:43;94826.22;;;-2.39;64.57
75166;BME280;63747;48.042;10.088;2023-02-26T11:36:44;94825.06;;;-2.61;64.77
75166;BME280;63747;48.042;10.088;2023-02-26T11:39:45;94824.47;;;-2.77;65.02
75166;BME280;63747;48.042;10.088;2023-02-26T11:42:50;94832.75;;;-2.72;65.06
75166;BME280;63747;48.042;10.088;2023-02-26T11:45:59;94837.94;;;-2.72;64.79
75166;BME280;63747;48.042;10.088;2023-02-26T11:49:01;94832.25;;;-2.77;64.95
75166;BME280;63747;48.042;10.088;2023-02-26T11:55:21;94830.47;;;-2.76;64.81
75166;BME280;63747;48.042;10.088;2023-02-26T11:58:29;94830.78;;;-2.68;64.76
75166;BME280;63747;48.042;10.088;2023-02-26T12:01:30;94841.88;;;-2.66;64.31
75166;BME280;63747;48.042;10.088;2023-02-26T12:04:31;94839.09;;;-2.63;64.15
75166;BME280;63747;48.042;10.088;2023-02-26T12:07:31;94833.81;;;-2.36;64.32
75166;BME280;63747;48.042;10.088;2023-02-26T12:10:39;94826.06;;;-1.87;63.45
75166;BME280;63747;48.042;10.088;2023-02-26T12:20:51;94811.88;;;-0.98;61.31
75166;BME280;63747;48.042;10.088;2023-02-26T12:37:50;94806.47;;;-1.43;61.46
75166;BME280;63747;48.042;10.088;2023-02-26T12:41:09;94806.06;;;-1.50;61.33
75166;BME280;63747;48.042;10.088;2023-02-26T12:44:18;94809.25;;;-1.70;62.00
75166;BME280;63747;48.042;10.088;2023-02-26T12:50:57;94814.84;;;-1.87;62.44
75166;BME280;63747;48.042;10.088;2023-02-26T12:57:49;94821.94;;;-2.02;63.05
75166;BME280;63747;48.042;10.088;2023-02-26T13:01:12;94818.41;;;-2.01;63.71
75166;BME280;63747;48.042;10.088;2023-02-26T13:07:38;94806.03;;;-1.61;63.20
75166;BME280;63747;48.042;10.088;2023-02-26T13:21:10;94831.09;;;-2.09;65.64
75166;BME280;63747;48.042;10.088;2023-02-26T13:24:43;94822.91;;;-2.29;66.45
75166;BME280;63747;48.042;10.088;2023-02-26T13:27:46;94827.75;;;-2.24;66.91
75166;BME280;63747;48.042;10.088;2023-02-26T13:30:52;94822.41;;;-1.84;66.38
75166;BME280;63747;48.042;10.088;2023-02-26T13:33:55;94826.59;;;-1.58;65.44
75166;BME280;63747;48.042;10.088;2023-02-26T13:36:58;94831.66;;;-1.56;65.07
75166;BME280;63747;48.042;10.088;2023-02-26T13:40:21;94823.47;;;-1.15;64.40
75166;BME280;63747;48.042;10.088;2023-02-26T13:43:54;94801.91;;;0.20;61.30
75166;BME280;63747;48.042;10.088;2023-02-26T13:50:22;94804.28;;;1.10;57.97
75166;BME280;63747;48.042;10.088;2023-02-26T13:59:45;94825.44;;;-1.06;63.96
75166;BME280;63747;48.042;10.088;2023-02-26T14:02:56;94833.84;;;-1.50;64.11
75166;BME280;63747;48.042;10.088;2023-02-26T14:15:40;94814.31;;;0.94;59.08
75166;BME280;63747;48.042;10.088;2023-02-26T14:21:53;94829.75;;;0.42;59.82
75166;BME280;63747;48.042;10.088;2023-02-26T14:25:00;94828.91;;;0.96;59.14
75166;BME280;63747;48.042;10.088;2023-02-26T14:31:25;94846.25;;;-0.71;64.83
75166;BME280;63747;48.042;10.088;2023-02-26T14:34:31;94842.81;;;-1.06;65.72
75166;BME280;63747;48.042;10.088;2023-02-26T14:37:36;94848.91;;;-1.19;65.45
75166;BME280;63747;48.042;10.088;2023-02-26T14:40:43;94845.84;;;-1.36;64.90
75166;BME280;63747;48.042;10.088;2023-02-26T14:43:55;94850.66;;;-1.43;64.60
75166;BME280;63747;48.042;10.088;2023-02-26T14:46:58;94846.72;;;-1.49;64.57
75166;BME280;63747;48.042;10.088;2023-02-26T14:49:59;94850.69;;;-1.56;64.27
75166;BME280;63747;48.042;10.088;2023-02-26T14:56:13;94854.75;;;-1.52;63.84
75166;BME280;63747;48.042;10.088;2023-02-26T15:02:55;94850.66;;;-1.43;63.89
75166;BME280;63747;48.042;10.088;2023-02-26T15:06:09;94852.56;;;-1.21;63.58
75166;BME280;63747;48.042;10.088;2023-02-26T15:09:23;94850.94;;;-1.11;63.41
75166;BME280;63747;48.042;10.088;2023-02-26T15:12:43;94854.84;;;-0.81;62.86
75166;BME280;63747;48.042;10.088;2023-02-26T15:16:15;94857.66;;;-0.49;62.22
75166;BME280;63747;48.042;10.088;2023-02-26T15:19:25;94853.41;;;-0.50;62.42
75166;BME280;63747;48.042;10.088;2023-02-26T15:22:48;94863.19;;;-0.65;62.61
75166;BME280;63747;48.042;10.088;2023-02-26T15:25:53;94851.31;;;-0.80;62.25
75166;BME280;63747;48.042;10.088;2023-02-26T15:28:57;94858.00;;;-0.89;62.17
75166;BME280;63747;48.042;10.088;2023-02-26T15:32:05;94856.19;;;-1.00;62.09
75166;BME280;63747;48.042;10.088;2023-02-26T15:35:19;94868.19;;;-1.10;62.49
75166;BME280;63747;48.042;10.088;2023-02-26T15:38:20;94879.72;;;-1.25;61.48
75166;BME280;63747;48.042;10.088;2023-02-26T15:41:23;94874.22;;;-1.33;62.28
75166;BME280;63747;48.042;10.088;2023-02-26T15:44:28;94880.78;;;-1.28;62.49
75166;BME280;63747;48.042;10.088;2023-02-26T15:47:30;94885.34;;;-1.31;62.47
75166;BME280;63747;48.042;10.088;2023-02-26T15:50:35;94870.84;;;-1.47;62.14
75166;BME280;63747;48.042;10.088;2023-02-26T15:53:45;94887.06;;;-1.56;62.30
75166;BME280;63747;48.042;10.088;2023-02-26T15:56:48;94893.09;;;-1.55;62.57
75166;BME280;63747;48.042;10.088;2023-02-26T15:59:51;94894.56;;;-1.64;62.52
75166;BME280;63747;48.042;10.088;2023-02-26T16:02:54;94899.19;;;-1.67;62.31
75166;BME280;63747;48.042;10.088;2023-02-26T16:05:57;94889.41;;;-1.77;61.93
75166;BME280;63747;48.042;10.088;2023-02-26T16:08:59;94907.50;;;-1.75;61.53
75166;BME280;63747;48.042;10.088;2023-02-26T16:12:11;94907.94;;;-1.81;60.94
75166;BME280;63747;48.042;10.088;2023-02-26T16:15:16;94908.34;;;-1.87;61.73
75166;BME280;63747;48.042;10.088;2023-02-26T16:18:22;94915.50;;;-1.91;61.58
75166;BME280;63747;48.042;10.088;2023-02-26T16:21:30;94924.53;;;-1.97;61.25
75166;BME280;63747;48.042;10.088;2023-02-26T16:24:32;94931.84;;;-2.02;61.02
75166;BME280;63747;48.042;10.088;2023-02-26T16:27:34;94925.41;;;-2.09;60.82
75166;BME280;63747;48.042;10.088;2023-02-26T16:30:37;94947.06;;;-2.10;60.99
75166;BME280;63747;48.042;10.088;2023-02-26T16:33:39;94951.38;;;-2.09;61.24
75166;BME280;63747;48.042;10.088;2023-02-26T16:36:41;94958.50;;;-2.12;61.36
75166;BME280;63747;48.042;10.088;2023-02-26T16:39:43;94972.00;;;-2.20;61.75
75166;BME280;63747;48.042;10.088;2023-02-26T16:42:50;94980.84;;;-2.22;62.01
75166;BME280;63747;48.042;10.088;2023-02-26T16:45:59;94980.63;;;-2.19;62.02
75166;BME280;63747;48.042;10.088;2023-02-26T16:49:03;94988.94;;;-2.14;62.14
75166;BME280;63747;48.042;10.088;2023-02-26T16:52:06;94994.69;;;-2.09;62.60
75166;BME280;63747;48.042;10.088;2023-02-26T16:55:10;95010.22;;;-2.22;62.90
75166;BME280;63747;48.042;10.088;2023-02-26T16:58:18;95004.44;;;-2.53;63.41
75166;BME280;63747;48.042;10.088;2023-02-26T17:01:21;94996.47;;;-2.76;63.99
75166;BME280;63747;48.042;10.088;2023-02-26T17:04:25;94987.16;;;-2.93;63.96
75166;BME280;63747;48.042;10.088;2023-02-26T17:07:33;95009.59;;;-3.07;63.78
75166;BME280;63747;48.042;10.088;2023-02-26T17:10:44;95015.81;;;-3.09;63.66
75166;BME280;63747;48.042;10.088;2023-02-26T17:13:56;95024.59;;;-3.12;63.51
75166;BME280;63747;48.042;10.088;2023-02-26T17:17:02;95016.81;;;-3.12;63.73
75166;BME280;63747;48.042;10.088;2023-02-26T17:20:03;95027.28;;;-3.13;63.62
75166;BME280;63747;48.042;10.088;2023-02-26T17:23:06;95024.97;;;-3.18;63.66
75166;BME280;63747;48.042;10.088;2023-02-26T17:26:08;95039.81;;;-3.20;63.95
75166;BME280;63747;48.042;10.088;2023-02-26T17:29:20;95030.63;;;-3.25;63.92
75166;BME280;63747;48.042;10.088;2023-02-26T17:32:25;95038.50;;;-3.27;63.90
75166;BME280;63747;48.042;10.088;2023-02-26T17:35:26;95033.69;;;-3.33;64.33
75166;BME280;63747;48.042;10.088;2023-02-26T17:38:28;95044.63;;;-3.28;64.20
75166;BME280;63747;48.042;10.088;2023-02-26T17:41:29;95054.34;;;-3.32;64.20
75166;BME280;63747;48.042;10.088;2023-02-26T17:44:30;95049.09;;;-3.44;64.50
75166;BME280;63747;48.042;10.088;2023-02-26T17:47:30;95048.16;;;-3.57;65.15
75166;BME280;63747;48.042;10.088;2023-02-26T17:50:42;95043.16;;;-3.61;65.23
75166;BME280;63747;48.042;10.088;2023-02-26T17:53:45;95049.34;;;-3.77;66.27
75166;BME280;63747;48.042;10.088;2023-02-26T17:56:46;95045.44;;;-3.84;66.55
75166;BME280;63747;48.042;10.088;2023-02-26T17:59:48;95051.53;;;-3.85;67.13
75166;BME280;63747;48.042;10.088;2023-02-26T18:02:49;95057.94;;;-3.77;66.62
75166;BME280;63747;48.042;10.088;2023-02-26T18:05:52;95065.34;;;-3.71;66.16
75166;BME280;63747;48.042;10.088;2023-02-26T18:08:53;95063.31;;;-3.66;65.88
75166;BME280;63747;48.042;10.088;2023-02-26T18:11:54;95071.63;;;-3.61;65.68